Time;durP1;ratioP1;P1;durP2;ratioP2;P2;SDS_P1;SDS_P2;PMS_P1;PMS_P2;Temp;Humidity;BMP_temperature;BMP_pressure;BME280_temperature;BME280_humidity;BME280_pressure;Samples;Min_cycle;Max_cycle;Signal;HPM_P1;HPM_P2
2022/04/12 00:00:00;;;;;;;;;1.25;1.25;;;;;17.16;44.41;101119.28;5071941;28;8954;-70
2022/04/12 00:02:26;;;;;;;;;2.00;2.00;;;;;17.18;44.42;101121.88;5072280;28;8783;-69
2022/04/12 00:04:51;;;;;;;;;1.00;1.00;;;;;17.17;44.09;101128.94;5071055;28;9381;-69
2022/04/12 00:07:17;;;;;;;;;2.50;2.50;;;;;17.14;44.51;101128.94;5072310;28;8793;-69
2022/04/12 00:09:43;;;;;;;;;2.00;2.00;;;;;17.18;44.67;101132.44;5071997;28;9592;-70
2022/04/12 00:12:08;;;;;;;;;1.00;1.00;;;;;17.18;44.49;101133.31;5071136;28;9558;-70
2022/04/12 00:14:34;;;;;;;;;0.75;0.75;;;;;17.16;44.45;101129.81;5072173;28;8792;-69
2022/04/12 00:19:43;;;;;;;;;2.75;2.75;;;;;17.14;44.54;101142.13;5070984;28;8740;-70
2022/04/12 00:22:08;;;;;;;;;2.25;1.00;;;;;17.13;44.49;101139.50;5071883;28;9476;-70
2022/04/12 00:24:33;;;;;;;;;3.00;2.00;;;;;17.14;44.55;101141.25;5071388;28;9572;-69
2022/04/12 00:26:59;;;;;;;;;1.50;1.50;;;;;17.13;44.32;101148.31;5071244;28;8798;-69
2022/04/12 00:29:24;;;;;;;;;1.50;1.00;;;;;17.12;44.54;101143.91;5071867;28;8949;-70
2022/04/12 00:31:50;;;;;;;;;2.00;2.00;;;;;17.12;44.32;101129.81;5070595;28;8780;-70
2022/04/12 00:34:15;;;;;;;;;1.25;1.25;;;;;17.12;44.43;101141.25;5071516;28;8788;-71
2022/04/12 00:36:40;;;;;;;;;1.00;1.00;;;;;17.11;44.61;101138.59;5071522;28;8807;-69
2022/04/12 00:39:06;;;;;;;;;2.00;2.00;;;;;17.11;44.54;101142.13;5070019;28;8815;-69
2022/04/12 00:41:35;;;;;;;;;1.00;1.00;;;;;17.12;44.48;101137.75;5071581;28;8791;-69
2022/04/12 00:44:01;;;;;;;;;1.50;1.50;;;;;17.10;44.50;101136.84;5071361;28;9319;-69
2022/04/12 00:46:26;;;;;;;;;1.50;1.50;;;;;17.12;44.55;101146.53;5070661;28;9449;-69
2022/04/12 00:48:51;;;;;;;;;1.25;1.25;;;;;17.11;44.92;101149.16;5070527;28;8914;-70
2022/04/12 00:51:17;;;;;;;;;2.75;2.00;;;;;17.11;44.50;101141.25;5070811;28;8808;-70
2022/04/12 00:53:43;;;;;;;;;0.00;0.00;;;;;17.08;44.30;101144.78;5070164;28;8910;-69
2022/04/12 00:56:09;;;;;;;;;1.75;1.75;;;;;17.07;44.43;101143.00;5071235;28;8780;-69
2022/04/12 00:58:34;;;;;;;;;1.50;0.50;;;;;17.08;44.52;101131.59;5071479;28;9417;-70
2022/04/12 01:01:00;;;;;;;;;1.00;1.00;;;;;17.09;44.22;101132.47;5070212;28;8800;-70
2022/04/12 01:03:25;;;;;;;;;2.25;2.25;;;;;17.10;44.63;101131.56;5071302;28;8945;-69
2022/04/12 01:05:50;;;;;;;;;2.25;1.25;;;;;17.11;44.68;101120.16;5070624;28;8795;-70
2022/04/12 01:08:17;;;;;;;;;1.50;1.50;;;;;17.07;44.47;101118.38;5070199;28;8802;-70
2022/04/12 01:10:44;;;;;;;;;1.00;1.00;;;;;17.08;44.43;101123.66;5071449;28;8782;-69
2022/04/12 01:13:09;;;;;;;;;1.00;1.00;;;;;17.09;44.93;101127.19;5070777;28;9427;-70
2022/04/12 01:15:35;;;;;;;;;2.00;2.00;;;;;17.07;44.94;101121.03;5070438;28;9553;-70
2022/04/12 01:18:00;;;;;;;;;1.00;1.00;;;;;17.06;44.49;101121.94;5070529;28;8791;-70
2022/04/12 01:20:30;;;;;;;;;2.00;2.00;;;;;17.07;44.44;101114.00;5070633;28;8808;-70
2022/04/12 01:22:58;;;;;;;;;1.25;1.00;;;;;17.05;44.41;101115.75;5069901;28;8763;-69
2022/04/12 01:25:23;;;;;;;;;1.75;1.25;;;;;17.04;44.68;101113.13;5070966;28;9449;-71
2022/04/12 01:27:49;;;;;;;;;1.00;1.00;;;;;17.04;44.60;101111.38;5069353;28;9481;-69
2022/04/12 01:30:18;;;;;;;;;2.25;2.25;;;;;17.03;44.59;101109.59;5070989;28;8784;-70
2022/04/12 01:32:43;;;;;;;;;1.00;1.00;;;;;17.02;44.39;101113.09;5070027;28;11625;-70
2022/04/12 01:35:09;;;;;;;;;1.75;1.75;;;;;17.05;44.23;101118.41;5070005;28;9485;-69
2022/04/12 01:37:34;;;;;;;;;2.00;2.00;;;;;17.04;44.33;101127.19;5070656;28;8784;-70
2022/04/12 01:40:00;;;;;;;;;3.00;2.00;;;;;17.02;44.34;101110.47;5070218;28;8787;-69
2022/04/12 01:42:26;;;;;;;;;1.00;1.00;;;;;17.03;44.49;101114.88;5069934;28;8768;-70
2022/04/12 01:44:51;;;;;;;;;2.75;2.75;;;;;17.03;44.64;101116.63;5069936;28;9387;-69
2022/04/12 01:47:17;;;;;;;;;1.25;1.25;;;;;17.01;44.39;101111.38;5070511;28;8787;-70
2022/04/12 01:49:43;;;;;;;;;1.00;1.00;;;;;17.04;44.60;101094.66;5069373;28;8772;-70
2022/04/12 01:52:10;;;;;;;;;1.00;1.00;;;;;17.01;44.62;101099.94;5070499;28;9466;-70
2022/04/12 01:54:35;;;;;;;;;1.25;1.00;;;;;17.01;44.46;101105.22;5070559;28;8768;-70
2022/04/12 01:57:01;;;;;;;;;1.00;1.00;;;;;17.00;44.23;101101.69;5069323;28;9518;-69
2022/04/12 01:59:26;;;;;;;;;1.25;1.00;;;;;17.00;44.50;101101.69;5070287;28;8795;-69
2022/04/12 02:01:51;;;;;;;;;1.25;1.25;;;;;17.01;44.33;101099.94;5070205;28;9551;-69
2022/04/12 02:04:20;;;;;;;;;1.75;1.75;;;;;17.00;44.57;101095.53;5069538;28;8764;-69
2022/04/12 02:06:45;;;;;;;;;2.00;1.00;;;;;16.98;44.17;101090.28;5070213;28;8879;-70
2022/04/12 02:09:10;;;;;;;;;2.00;2.00;;;;;17.00;44.49;101095.53;5070035;28;9491;-69
2022/04/12 02:11:36;;;;;;;;;1.67;1.67;;;;;16.99;44.44;101092.00;5070814;28;8904;-68
2022/04/12 02:14:01;;;;;;;;;1.75;1.00;;;;;16.98;44.09;101085.00;5069760;28;9546;-68
2022/04/12 02:16:26;;;;;;;;;2.00;2.00;;;;;16.99;44.58;101088.50;5070097;28;8808;-69
2022/04/12 02:18:51;;;;;;;;;2.25;1.00;;;;;16.98;44.37;101092.91;5069121;28;8784;-69
2022/04/12 02:21:17;;;;;;;;;2.75;2.75;;;;;16.98;44.48;101089.41;5069811;28;8950;-69
2022/04/12 02:23:42;;;;;;;;;1.50;1.50;;;;;16.97;44.63;101085.88;5070085;28;8790;-69
2022/04/12 02:26:07;;;;;;;;;1.25;1.25;;;;;16.97;44.52;101080.59;5069060;28;8878;-70
2022/04/12 02:28:32;;;;;;;;;2.00;2.00;;;;;16.97;44.58;101077.06;5070040;28;8797;-70
2022/04/12 02:30:58;;;;;;;;;1.00;1.00;;;;;16.97;44.39;101071.81;5069508;28;8786;-69
2022/04/12 02:33:23;;;;;;;;;1.50;1.50;;;;;16.96;44.25;101072.69;5069289;28;9514;-70
2022/04/12 02:35:48;;;;;;;;;2.25;2.00;;;;;16.94;44.50;101056.88;5069738;28;8775;-69
2022/04/12 02:38:14;;;;;;;;;0.25;0.25;;;;;16.94;44.49;101056.00;5069062;28;8775;-69
2022/04/12 02:40:39;;;;;;;;;1.00;1.00;;;;;16.88;44.79;101036.63;5069800;28;8811;-69
2022/04/12 02:43:04;;;;;;;;;1.00;1.00;;;;;16.94;44.54;101037.53;5070536;28;8856;-70
2022/04/12 02:45:29;;;;;;;;;1.75;1.75;;;;;16.95;44.52;101047.16;5073233;28;8787;-68
2022/04/12 02:47:55;;;;;;;;;2.25;1.25;;;;;16.96;44.26;101051.56;5073422;28;8791;-69
2022/04/12 02:50:20;;;;;;;;;2.00;2.00;;;;;16.95;44.23;101044.53;5073871;28;8783;-69
2022/04/12 02:52:45;;;;;;;;;1.00;1.00;;;;;16.94;44.50;101053.34;5072585;28;8759;-69
2022/04/12 02:55:10;;;;;;;;;1.25;1.25;;;;;16.94;44.46;101043.69;5073286;28;8999;-69
2022/04/12 02:57:36;;;;;;;;;1.75;1.25;;;;;16.94;44.17;101046.31;5073718;28;8768;-70
2022/04/12 03:00:01;;;;;;;;;2.50;1.50;;;;;16.93;44.52;101039.28;5072056;28;8791;-69
2022/04/12 03:02:26;;;;;;;;;0.33;0.33;;;;;16.92;44.18;101037.50;5073561;28;8780;-69
2022/04/12 03:04:52;;;;;;;;;1.00;1.00;;;;;16.91;44.24;101039.25;5072955;28;8759;-69
2022/04/12 03:07:17;;;;;;;;;2.00;2.00;;;;;16.92;44.35;101037.50;5072709;28;8821;-69
2022/04/12 03:09:42;;;;;;;;;1.67;1.67;;;;;16.90;44.24;101039.28;5073138;28;8774;-69
2022/04/12 03:12:09;;;;;;;;;2.50;1.50;;;;;16.89;44.14;101032.25;5072445;28;8891;-69
2022/04/12 03:14:34;;;;;;;;;2.00;2.00;;;;;16.88;44.27;101031.38;5072110;28;8880;-70
2022/04/12 03:16:59;;;;;;;;;2.00;2.00;;;;;16.88;44.15;101036.63;5072655;28;9670;-69
2022/04/12 03:19:24;;;;;;;;;2.00;2.00;;;;;16.89;44.55;101029.59;5072803;28;8803;-70
2022/04/12 03:21:50;;;;;;;;;1.00;1.00;;;;;16.88;44.63;101022.56;5072134;28;8779;-69
2022/04/12 03:24:15;;;;;;;;;2.75;2.75;;;;;16.88;44.48;101028.72;5072867;28;8795;-69
2022/04/12 03:26:40;;;;;;;;;2.00;2.00;;;;;16.87;44.50;101039.28;5072779;28;8783;-69
2022/04/12 03:29:07;;;;;;;;;1.75;1.75;;;;;16.87;44.42;101029.59;5071817;28;8771;-70
2022/04/12 03:31:33;;;;;;;;;1.25;1.25;;;;;16.86;44.21;101022.59;5073010;28;8837;-70
2022/04/12 03:33:58;;;;;;;;;3.00;2.00;;;;;16.86;44.24;101025.22;5072422;28;9529;-68
2022/04/12 03:36:24;;;;;;;;;2.00;2.00;;;;;16.86;44.44;101033.13;5072017;28;9612;-70
2022/04/12 03:38:49;;;;;;;;;1.00;1.00;;;;;16.87;44.51;101036.66;5072613;28;8787;-69
2022/04/12 03:41:18;;;;;;;;;2.00;2.00;;;;;16.86;44.41;101030.50;5072941;28;8819;-69
2022/04/12 03:43:44;;;;;;;;;1.00;1.00;;;;;16.86;44.52;101034.91;5071732;28;8878;-70
2022/04/12 03:46:09;;;;;;;;;1.50;1.25;;;;;16.84;44.59;101024.34;5072434;28;9519;-69
2022/04/12 03:48:34;;;;;;;;;1.75;1.75;;;;;16.86;44.29;101026.97;5071511;28;8788;-70
2022/04/12 03:51:00;;;;;;;;;1.00;1.00;;;;;16.86;44.38;101021.72;5072284;28;8772;-70
2022/04/12 03:53:25;;;;;;;;;1.00;1.00;;;;;16.86;44.15;101021.72;5072401;28;9528;-69
2022/04/12 03:55:50;;;;;;;;;1.50;1.50;;;;;16.87;44.62;101020.84;5070761;28;8848;-70
2022/04/12 03:58:19;;;;;;;;;2.00;2.00;;;;;16.85;44.65;101026.09;5072067;28;8810;-70
2022/04/12 04:00:45;;;;;;;;;1.25;1.25;;;;;16.85;44.38;101039.28;5071814;28;8811;-69
2022/04/12 04:03:10;;;;;;;;;1.00;1.00;;;;;16.83;44.35;101041.03;5071444;28;9374;-70
2022/04/12 04:05:35;;;;;;;;;1.50;1.50;;;;;16.84;44.45;101047.19;5072457;28;8937;-70
2022/04/12 04:08:01;;;;;;;;;1.00;1.00;;;;;16.82;44.43;101051.59;5072029;28;8774;-69
2022/04/12 04:10:26;;;;;;;;;3.00;2.75;;;;;16.82;44.43;101052.47;5071325;28;8778;-70
2022/04/12 04:12:53;;;;;;;;;2.00;2.00;;;;;16.83;44.39;101056.84;5071712;28;8791;-69
2022/04/12 04:15:18;;;;;;;;;2.50;2.00;;;;;16.82;44.37;101055.13;5072094;28;8758;-69
2022/04/12 04:17:45;;;;;;;;;2.00;2.00;;;;;16.80;44.65;101056.84;5070579;28;9505;-69
2022/04/12 04:20:14;;;;;;;;;1.50;1.50;;;;;16.81;44.40;101063.00;5071486;28;8771;-69
2022/04/12 04:22:41;;;;;;;;;2.00;2.00;;;;;16.82;44.46;101059.50;5071679;28;9564;-69
2022/04/12 04:25:08;;;;;;;;;2.00;2.00;;;;;16.79;44.23;101057.75;5071100;28;9392;-69
2022/04/12 04:27:34;;;;;;;;;1.25;1.25;;;;;16.78;44.49;101036.66;5072168;28;9481;-69
2022/04/12 04:30:00;;;;;;;;;2.00;2.00;;;;;16.79;44.28;101036.66;5071683;28;9391;-69
2022/04/12 04:32:25;;;;;;;;;1.75;1.75;;;;;16.80;44.52;101030.50;5071536;28;8826;-70
2022/04/12 04:34:51;;;;;;;;;2.00;1.50;;;;;16.79;44.44;101023.47;5071818;28;8852;-70
2022/04/12 04:37:16;;;;;;;;;2.00;2.00;;;;;16.78;44.66;101005.91;5072070;28;8776;-70
2022/04/12 04:39:41;;;;;;;;;2.00;2.00;;;;;16.79;44.48;101002.38;5071299;28;8790;-70
2022/04/12 04:42:09;;;;;;;;;1.00;1.00;;;;;16.80;44.62;101003.25;5071570;28;8907;-70
2022/04/12 04:44:35;;;;;;;;;2.25;2.25;;;;;16.79;44.62;101005.03;5071866;28;8841;-70
2022/04/12 04:47:00;;;;;;;;;2.25;2.25;;;;;16.76;44.55;101012.91;5071044;28;9451;-69
2022/04/12 04:49:25;;;;;;;;;2.00;2.00;;;;;16.79;44.33;101015.56;5071728;28;8774;-70
2022/04/12 04:51:51;;;;;;;;;1.00;1.00;;;;;16.78;44.24;101002.38;5070241;28;8799;-70
2022/04/12 04:54:16;;;;;;;;;1.75;1.75;;;;;16.77;44.71;100995.34;5071068;28;8813;-69
2022/04/12 04:56:41;;;;;;;;;0.50;0.50;;;;;16.77;44.45;100993.59;5074129;28;8760;-70
2022/04/12 04:59:07;;;;;;;;;2.00;2.00;;;;;16.78;44.35;100991.84;5070574;28;8802;-70
2022/04/12 05:01:32;;;;;;;;;1.75;1.75;;;;;16.81;44.34;100991.81;5071248;28;8826;-71
2022/04/12 05:04:00;;;;;;;;;2.00;1.00;;;;;16.84;44.40;100999.72;5071058;28;8810;-70
2022/04/12 05:06:26;;;;;;;;;2.00;2.00;;;;;16.85;44.24;101009.41;5069372;28;8775;-70
2022/04/12 05:08:54;;;;;;;;;1.00;1.00;;;;;16.86;44.55;101016.44;5070653;28;9585;-69
2022/04/12 05:11:19;;;;;;;;;1.75;1.75;;;;;16.87;44.08;101010.28;5072388;28;8803;-70
2022/04/12 05:13:44;;;;;;;;;2.00;2.00;;;;;16.89;44.11;101011.16;5070241;28;9548;-70
2022/04/12 05:16:10;;;;;;;;;0.00;0.00;;;;;16.90;44.25;101010.28;5070785;28;8887;-69
2022/04/12 05:18:35;;;;;;;;;2.25;2.25;;;;;16.87;44.13;101015.56;5070545;28;8800;-69
2022/04/12 05:21:00;;;;;;;;;3.00;2.00;;;;;16.87;44.03;101015.56;5069964;28;8805;-70
2022/04/12 05:23:26;;;;;;;;;1.75;1.75;;;;;16.88;44.26;101035.75;5070917;28;8777;-70
2022/04/12 05:25:53;;;;;;;;;2.25;1.25;;;;;16.89;44.18;101038.41;5070500;28;8778;-70
2022/04/12 05:28:19;;;;;;;;;4.00;3.00;;;;;16.90;44.20;101037.53;5069699;28;8900;-69
2022/04/12 05:30:45;;;;;;;;;2.00;2.00;;;;;16.89;44.12;101026.97;5070320;28;9501;-69
2022/04/12 05:33:10;;;;;;;;;2.00;2.00;;;;;16.88;43.98;101030.47;5070477;28;9675;-69
2022/04/12 05:35:35;;;;;;;;;1.00;1.00;;;;;16.89;44.16;101034.88;5069923;28;8966;-69
2022/04/12 05:38:01;;;;;;;;;1.50;1.00;;;;;16.89;44.39;101034.88;5070062;28;8812;-70
2022/04/12 05:40:27;;;;;;;;;1.75;1.75;;;;;16.89;44.18;101038.41;5070487;28;8924;-69
2022/04/12 05:42:52;;;;;;;;;1.00;1.00;;;;;16.89;43.88;101037.53;5069149;28;9579;-69
2022/04/12 05:45:17;;;;;;;;;2.00;2.00;;;;;16.89;44.04;101037.53;5070100;28;8901;-69
2022/04/12 05:47:51;;;;;;;;;2.00;2.00;;;;;16.88;43.78;101036.63;5070001;28;8985;-69
2022/04/12 05:50:18;;;;;;;;;2.50;2.50;;;;;16.91;45.10;101026.09;5069826;28;8782;-70
2022/04/12 05:52:44;;;;;;;;;2.00;2.00;;;;;17.05;48.85;101023.44;5069998;28;9402;-72
2022/04/12 05:55:11;;;;;;;;;2.00;2.00;;;;;17.18;52.42;101019.00;5069563;28;9733;-71
2022/04/12 05:57:38;;;;;;;;;3.00;2.75;;;;;17.25;49.91;101020.72;5070168;28;8789;-70
2022/04/12 06:00:06;;;;;;;;;4.50;3.00;;;;;17.37;50.25;101034.78;5069861;28;9500;-71
2022/04/12 06:02:32;;;;;;;;;4.75;3.75;;;;;17.50;57.45;101038.25;5069579;28;9598;-70
2022/04/12 06:04:57;;;;;;;;;9.00;6.00;;;;;17.55;57.28;101035.59;5069481;28;9641;-70
2022/04/12 06:07:32;;;;;;;;;5.50;4.00;;;;;17.60;55.87;101040.00;5069781;28;8844;-70
2022/04/12 06:10:01;;;;;;;;;3.75;3.75;;;;;17.67;56.02;101036.47;5061984;28;8760;-68
2022/04/12 06:12:27;;;;;;;;;4.50;4.00;;;;;17.64;57.75;101025.91;5070018;28;9496;-69
2022/04/12 06:14:53;;;;;;;;;5.50;4.50;;;;;17.65;56.92;101024.16;5070030;28;9552;-69
2022/04/12 06:17:19;;;;;;;;;3.00;3.00;;;;;17.66;58.37;101026.78;5069155;28;11436;-69
2022/04/12 06:19:44;;;;;;;;;6.50;4.50;;;;;17.69;59.19;101031.19;5069496;28;9770;-68
2022/04/12 06:22:09;;;;;;;;;3.25;3.25;;;;;17.65;54.61;101032.06;5067867;28;8828;-70
2022/04/12 06:24:34;;;;;;;;;5.75;5.00;;;;;17.57;54.06;101026.81;5062785;28;8814;-70
2022/04/12 06:27:03;;;;;;;;;6.50;6.00;;;;;17.53;52.57;101024.16;5068227;28;8827;-70
2022/04/12 06:29:28;;;;;;;;;5.75;5.75;;;;;17.47;52.00;101029.47;5068972;28;8813;-70
2022/04/12 06:31:54;;;;;;;;;9.50;9.25;;;;;17.44;50.49;101037.38;5068138;28;9645;-70
2022/04/12 06:34:19;;;;;;;;;6.25;6.25;;;;;17.43;50.20;101033.91;5073176;28;9544;-71
2022/04/12 06:36:44;;;;;;;;;11.25;7.00;;;;;17.37;49.04;101040.06;5067666;28;9000;-71
2022/04/12 06:39:09;;;;;;;;;6.00;5.75;;;;;17.35;48.91;101039.19;5068143;28;8792;-71
2022/04/12 06:41:35;;;;;;;;;7.00;5.50;;;;;17.34;48.58;101040.06;5068585;28;8816;-71
2022/04/12 06:44:00;;;;;;;;;8.00;7.50;;;;;17.31;47.56;101047.13;5068665;28;9507;-71
2022/04/12 06:46:25;;;;;;;;;8.50;8.50;;;;;17.29;47.22;101027.75;5066966;28;8779;-71
2022/04/12 06:48:51;;;;;;;;;6.00;5.00;;;;;17.30;47.28;101037.44;5068081;28;8799;-71
2022/04/12 06:51:16;;;;;;;;;8.00;7.25;;;;;17.29;47.46;101033.91;5068772;28;8929;-71
2022/04/12 06:53:41;;;;;;;;;8.75;8.25;;;;;17.27;46.91;101035.69;5068221;28;8817;-71
2022/04/12 06:56:06;;;;;;;;;9.25;8.50;;;;;17.24;46.30;101025.16;5067164;28;8842;-71
2022/04/12 06:58:33;;;;;;;;;11.00;8.50;;;;;17.27;46.18;101029.53;5068305;28;8784;-71
2022/04/12 07:00:58;;;;;;;;;7.75;7.75;;;;;17.27;46.49;101037.44;5068800;28;8819;-71
2022/04/12 07:03:23;;;;;;;;;7.00;7.00;;;;;17.26;46.05;101033.94;5068659;28;9638;-70
2022/04/12 07:05:49;;;;;;;;;8.25;7.75;;;;;17.29;45.47;101033.91;5066640;28;8792;-71
2022/04/12 07:08:15;;;;;;;;;7.50;7.50;;;;;17.25;45.56;101026.00;5068739;28;8938;-70
2022/04/12 07:10:42;;;;;;;;;10.00;10.00;;;;;17.24;44.39;101029.56;5068309;28;9770;-71
2022/04/12 07:13:07;;;;;;;;;9.75;9.50;;;;;17.23;44.27;101023.41;5067932;28;8902;-71
2022/04/12 07:15:32;;;;;;;;;10.25;9.25;;;;;17.22;43.32;101023.38;5066314;28;10085;-70
2022/04/12 07:17:58;;;;;;;;;15.25;13.00;;;;;17.20;43.74;101012.84;5067660;28;8990;-71
2022/04/12 07:20:27;;;;;;;;;10.25;9.00;;;;;17.20;43.67;101010.22;5067665;28;8850;-71
2022/04/12 07:22:52;;;;;;;;;10.00;9.00;;;;;17.22;44.61;101008.44;5067740;28;9945;-70
2022/04/12 07:25:18;;;;;;;;;11.25;10.50;;;;;17.21;44.57;101019.88;5067013;28;9991;-70
2022/04/12 07:27:43;;;;;;;;;7.50;7.50;;;;;17.22;43.31;101023.38;5068388;28;8803;-70
2022/04/12 07:30:09;;;;;;;;;9.50;9.00;;;;;17.24;44.01;101016.34;5070107;28;8817;-70
2022/04/12 07:32:34;;;;;;;;;7.75;7.75;;;;;17.25;44.12;101023.38;5072978;28;8930;-70
2022/04/12 07:35:00;;;;;;;;;10.50;8.50;;;;;17.23;43.67;101022.50;5071729;28;10038;-71
2022/04/12 07:37:25;;;;;;;;;6.50;6.50;;;;;17.21;43.64;101013.69;5072930;28;8813;-70
2022/04/12 07:39:50;;;;;;;;;10.75;10.00;;;;;17.20;43.61;101009.34;5072296;28;8794;-70
2022/04/12 07:42:16;;;;;;;;;12.75;10.00;;;;;17.18;43.46;101014.59;5071541;28;8818;-71
2022/04/12 07:44:42;;;;;;;;;11.25;8.75;;;;;17.21;43.14;101011.94;5072693;28;8814;-71
2022/04/12 07:47:08;;;;;;;;;11.75;11.25;;;;;17.18;42.98;101013.72;5072149;28;11028;-71
2022/04/12 07:49:33;;;;;;;;;12.25;11.25;;;;;17.18;42.86;101013.72;5071957;28;8814;-71
2022/04/12 07:51:58;;;;;;;;;12.25;9.25;;;;;17.21;43.37;101018.97;5075443;28;10039;-71
2022/04/12 07:54:24;;;;;;;;;8.75;8.25;;;;;17.21;43.34;101009.31;5073486;28;8789;-71
2022/04/12 07:56:49;;;;;;;;;10.00;10.00;;;;;17.25;43.21;101010.16;5072202;28;8786;-71
2022/04/12 07:59:14;;;;;;;;;14.50;12.75;;;;;17.22;43.12;101011.06;5071576;28;8822;-71
2022/04/12 08:01:39;;;;;;;;;10.75;10.00;;;;;17.20;43.46;101012.84;5071395;28;8886;-71
2022/04/12 08:04:05;;;;;;;;;13.50;10.25;;;;;17.18;43.45;101009.31;5072190;28;8809;-71
2022/04/12 08:06:30;;;;;;;;;15.25;11.25;;;;;17.16;43.05;101002.31;5070710;28;8815;-70
2022/04/12 08:08:56;;;;;;;;;12.00;12.00;;;;;17.12;43.09;101000.56;5072551;28;8794;-72
2022/04/12 08:11:21;;;;;;;;;10.50;10.00;;;;;17.16;43.53;101008.47;5072408;28;8784;-72
2022/04/12 08:13:46;;;;;;;;;16.00;15.25;;;;;17.16;43.42;101002.31;5071778;28;8787;-72
2022/04/12 08:16:15;;;;;;;;;9.75;9.75;;;;;17.23;43.78;101017.22;5071485;28;8872;-70
2022/04/12 08:18:41;;;;;;;;;9.25;9.25;;;;;17.24;43.77;101026.91;5072092;28;8896;-70
2022/04/12 08:21:06;;;;;;;;;9.75;9.75;;;;;17.30;43.84;101022.47;5071642;28;10682;-71
2022/04/12 08:23:31;;;;;;;;;9.00;9.00;;;;;17.30;43.87;101026.88;5069658;28;8820;-71
2022/04/12 08:25:56;;;;;;;;;11.00;10.00;;;;;17.32;43.81;101031.25;5070073;28;8796;-71
2022/04/12 08:28:22;;;;;;;;;6.75;6.50;;;;;17.33;43.71;101022.47;5070650;28;8799;-71
2022/04/12 08:30:47;;;;;;;;;9.50;9.00;;;;;17.33;43.92;101018.94;5070337;28;8768;-70
2022/04/12 08:33:13;;;;;;;;;5.25;5.25;;;;;17.35;44.01;101025.13;5070924;28;8796;-71
2022/04/12 08:35:38;;;;;;;;;9.50;9.50;;;;;17.33;43.86;101027.75;5070837;28;8788;-71
2022/04/12 08:38:04;;;;;;;;;8.25;8.00;;;;;17.35;43.91;101030.41;5069778;28;8819;-71
2022/04/12 08:40:30;;;;;;;;;6.75;6.00;;;;;17.37;43.97;101032.13;5070977;28;8804;-72
2022/04/12 08:42:58;;;;;;;;;7.00;7.00;;;;;17.37;43.91;101032.13;5070507;28;8816;-71
2022/04/12 08:45:24;;;;;;;;;7.25;7.25;;;;;17.39;43.91;101025.09;5070194;28;8782;-71
2022/04/12 08:47:51;;;;;;;;;7.50;7.50;;;;;17.41;44.01;101019.81;5068707;28;9731;-72
2022/04/12 08:50:16;;;;;;;;;9.25;6.75;;;;;17.43;43.96;101025.97;5070526;28;9849;-71
2022/04/12 08:52:42;;;;;;;;;7.75;6.50;;;;;17.45;44.21;101021.56;5069439;28;9712;-72
2022/04/12 08:55:08;;;;;;;;;8.25;7.00;;;;;17.45;44.31;101016.28;5069987;28;8811;-71
2022/04/12 08:57:33;;;;;;;;;7.50;5.75;;;;;17.45;44.12;101011.00;5069146;28;8780;-70
2022/04/12 08:59:59;;;;;;;;;7.75;7.50;;;;;17.43;44.15;100994.31;5069234;28;9791;-70
2022/04/12 09:02:24;;;;;;;;;6.00;5.00;;;;;17.47;44.08;101001.28;5069792;28;8819;-70
2022/04/12 09:04:50;;;;;;;;;6.50;4.25;;;;;17.49;44.48;101003.94;5070161;28;8803;-70
2022/04/12 09:07:16;;;;;;;;;9.50;9.50;;;;;17.47;44.58;100993.38;5067559;28;8814;-69
2022/04/12 09:09:42;;;;;;;;;6.00;6.00;;;;;17.46;44.53;100991.66;5069889;28;8802;-70
2022/04/12 09:12:13;;;;;;;;;5.00;5.00;;;;;17.46;44.58;100978.44;5068820;28;11440;-69
2022/04/12 09:14:39;;;;;;;;;7.25;5.50;;;;;17.46;44.55;100970.53;5069768;28;9635;-70
2022/04/12 09:17:06;;;;;;;;;2.75;2.00;;;;;17.46;44.69;100975.81;5068034;28;9832;-69
2022/04/12 09:19:45;;;;;;;;;5.25;5.25;;;;;17.48;45.08;100967.84;5069285;28;9553;-69
2022/04/12 09:22:23;;;;;;;;;5.50;5.50;;;;;17.49;44.86;100972.25;5069903;28;9823;-70
2022/04/12 09:24:53;;;;;;;;;5.25;5.25;;;;;17.52;44.74;100970.50;5070410;28;9709;-70
2022/04/12 09:27:26;;;;;;;;;5.00;5.00;;;;;17.51;45.26;100968.72;5068113;28;9888;-70
2022/04/12 09:29:54;;;;;;;;;6.00;4.75;;;;;17.53;45.29;100964.34;5074020;28;9871;-70
2022/04/12 09:32:27;;;;;;;;;4.00;4.00;;;;;17.54;45.29;100971.38;5070287;28;9564;-70
2022/04/12 09:34:54;;;;;;;;;4.75;4.75;;;;;17.53;45.38;100972.25;5068844;28;9676;-69
2022/04/12 09:37:27;;;;;;;;;3.75;2.75;;;;;17.56;45.45;100972.22;5068234;28;9724;-69
2022/04/12 09:40:01;;;;;;;;;5.75;3.75;;;;;17.58;45.51;100969.63;5069098;28;9557;-70
2022/04/12 09:42:49;;;;;;;;;2.75;2.75;;;;;17.57;45.17;100971.38;5068891;28;9626;-70
2022/04/12 09:45:19;;;;;;;;;2.75;2.75;;;;;17.61;45.45;100974.88;5069489;28;9479;-70
2022/04/12 09:47:46;;;;;;;;;3.25;3.25;;;;;17.60;45.59;100971.38;5067462;28;9538;-70
2022/04/12 09:50:11;;;;;;;;;5.00;4.50;;;;;17.60;45.70;100966.09;5069103;28;9574;-69
2022/04/12 09:52:51;;;;;;;;;4.00;4.00;;;;;17.61;45.93;100959.03;5069075;28;9498;-71
2022/04/12 09:55:33;;;;;;;;;3.25;3.25;;;;;17.64;45.85;100962.53;5068468;28;8945;-69
2022/04/12 09:58:00;;;;;;;;;3.00;3.00;;;;;17.65;45.89;100953.75;5067951;28;9724;-70
2022/04/12 10:00:29;;;;;;;;;4.25;3.50;;;;;17.69;46.05;100951.97;5068823;28;9880;-69
2022/04/12 10:02:56;;;;;;;;;5.00;5.00;;;;;17.73;45.88;100948.41;5068362;28;9659;-71
2022/04/12 10:05:21;;;;;;;;;4.00;4.00;;;;;17.74;46.20;100945.75;5068880;28;10556;-71
2022/04/12 10:07:47;;;;;;;;;2.50;2.50;;;;;17.80;45.86;100944.84;5066754;28;9549;-71
2022/04/12 10:10:14;;;;;;;;;2.75;2.00;;;;;17.82;45.75;100945.72;5068714;28;8779;-70
2022/04/12 10:12:40;;;;;;;;;3.75;3.75;;;;;17.84;46.20;100938.66;5069238;28;8784;-69
2022/04/12 10:15:06;;;;;;;;;3.00;3.00;;;;;17.83;46.13;100936.91;5069142;28;10642;-68
2022/04/12 10:17:39;;;;;;;;;3.00;3.00;;;;;17.85;46.25;100928.06;5067573;28;8832;-70
2022/04/12 10:20:06;;;;;;;;;2.75;2.75;;;;;17.88;46.15;100925.41;5068266;28;9624;-69
2022/04/12 10:22:33;;;;;;;;;3.50;2.50;;;;;17.87;46.42;100920.16;5069002;28;9512;-68
2022/04/12 10:25:01;;;;;;;;;2.25;2.25;;;;;17.88;46.57;100909.56;5067750;28;9470;-68
2022/04/12 10:27:27;;;;;;;;;3.50;3.00;;;;;17.89;46.45;100905.16;5069499;28;9394;-68
2022/04/12 10:30:17;;;;;;;;;4.00;4.00;;;;;17.93;46.63;100898.09;5068183;28;9420;-68
2022/04/12 10:33:07;;;;;;;;;3.25;3.00;;;;;17.92;46.57;100902.47;5069354;28;9623;-68
2022/04/12 10:35:44;;;;;;;;;4.25;4.25;;;;;17.95;46.72;100907.78;5069747;28;9639;-69
2022/04/12 10:38:11;;;;;;;;;3.00;3.00;;;;;17.96;46.74;100916.56;5068949;28;9862;-69
2022/04/12 10:40:42;;;;;;;;;3.00;3.00;;;;;17.99;46.72;100913.91;5069281;28;9700;-69
2022/04/12 10:43:10;;;;;;;;;5.00;3.50;;;;;17.98;46.74;100915.66;5068983;28;9661;-69
2022/04/12 10:45:37;;;;;;;;;3.00;2.00;;;;;18.01;46.95;100920.91;5068740;28;9557;-69
2022/04/12 10:48:03;;;;;;;;;6.75;6.00;;;;;18.04;47.00;100918.25;5069527;28;9464;-68
2022/04/12 10:50:43;;;;;;;;;3.00;2.00;;;;;18.04;47.08;100907.69;5090973;28;9684;-68
2022/04/12 10:53:09;;;;;;;;;2.50;2.50;;;;;18.04;46.80;100897.09;5089797;28;9343;-69
2022/04/12 10:55:41;;;;;;;;;3.50;3.00;;;;;18.08;47.02;100895.31;5089900;28;9401;-69
2022/04/12 10:58:28;;;;;;;;;4.00;3.75;;;;;18.07;47.31;100890.94;5085965;28;8908;-69
2022/04/12 11:00:54;;;;;;;;;2.75;2.75;;;;;18.09;47.00;100892.69;5061827;28;9634;-68
2022/04/12 11:03:26;;;;;;;;;2.75;2.75;;;;;18.10;47.08;100888.28;5071130;28;9623;-68
2022/04/12 11:05:54;;;;;;;;;3.50;3.00;;;;;18.11;47.22;100896.16;5064207;28;11374;-69
2022/04/12 11:08:19;;;;;;;;;3.50;3.25;;;;;18.12;47.45;100895.28;5073919;28;9520;-69
2022/04/12 11:10:51;;;;;;;;;2.00;2.00;;;;;18.14;47.25;100897.94;5073230;28;9561;-69
2022/04/12 11:13:20;;;;;;;;;2.75;2.75;;;;;18.13;47.59;100897.06;5072538;28;8806;-69
2022/04/12 11:15:57;;;;;;;;;3.75;3.25;;;;;18.12;47.40;100907.63;5072667;28;9610;-69
2022/04/12 11:18:22;;;;;;;;;2.00;2.00;;;;;18.09;47.63;100897.97;5072759;28;9648;-69
2022/04/12 11:21:08;;;;;;;;;3.00;3.00;;;;;18.11;47.63;100895.31;5072306;28;9621;-69
2022/04/12 11:23:48;;;;;;;;;3.00;3.00;;;;;18.12;47.80;100875.91;5075443;28;8819;-70
2022/04/12 11:26:40;;;;;;;;;2.00;2.00;;;;;18.13;47.67;100870.63;5072471;28;9551;-71
2022/04/12 11:29:10;;;;;;;;;2.75;2.75;;;;;18.17;47.71;100877.63;5072021;28;9581;-71
2022/04/12 11:31:44;;;;;;;;;2.00;2.00;;;;;18.16;47.85;100881.16;5064347;28;9519;-70